createdAt,value
2022-10-16T00:02:10.424Z,7.40
2022-10-16T00:12:11.951Z,4.83
2022-10-16T00:22:14.319Z,3.53
2022-10-16T00:32:15.802Z,3.40
2022-10-16T00:42:18.775Z,3.40
2022-10-16T00:52:22.972Z,3.70
2022-10-16T01:02:24.920Z,3.67
2022-10-16T01:12:59.186Z,3.43
2022-10-16T01:23:22.656Z,3.43
2022-10-16T01:33:31.261Z,3.50
2022-10-16T01:43:38.715Z,3.37
2022-10-16T01:53:44.830Z,2.80
2022-10-16T02:03:47.785Z,3.47
2022-10-16T02:13:53.948Z,3.20
2022-10-16T02:23:58.272Z,2.50
2022-10-16T02:34:01.062Z,2.63
2022-10-16T02:44:02.587Z,3.00
2022-10-16T02:54:04.376Z,2.50
2022-10-16T03:04:05.955Z,2.53
2022-10-16T03:14:07.587Z,3.43
2022-10-16T03:24:09.464Z,2.70
2022-10-16T03:34:10.954Z,3.50
2022-10-16T03:44:12.406Z,3.47
2022-10-16T03:54:14.138Z,2.90
2022-10-16T04:04:15.704Z,2.70
2022-10-16T04:14:17.118Z,2.80
2022-10-16T04:24:18.561Z,2.90
2022-10-16T04:34:20.184Z,2.20
2022-10-16T04:44:21.680Z,2.80
2022-10-16T04:54:23.268Z,2.40
2022-10-16T05:04:24.809Z,2.43
2022-10-16T05:14:26.256Z,2.77
2022-10-16T05:24:28.008Z,2.43
2022-10-16T05:34:29.601Z,2.20
2022-10-16T05:44:31.217Z,2.40
2022-10-16T05:54:32.710Z,2.33
2022-10-16T06:04:34.380Z,2.20
2022-10-16T06:14:35.920Z,2.43
2022-10-16T06:24:37.412Z,2.50
2022-10-16T06:34:43.352Z,2.13
2022-10-16T06:44:45.995Z,2.23
2022-10-16T06:54:47.465Z,1.93
2022-10-16T07:04:48.926Z,2.03
2022-10-16T07:14:53.084Z,2.30
2022-10-16T07:24:54.694Z,2.10
2022-10-16T07:34:56.621Z,1.90
2022-10-16T07:44:58.085Z,1.93
2022-10-16T07:54:59.533Z,1.80
2022-10-16T08:05:00.956Z,1.70
2022-10-16T08:15:02.473Z,2.05
2022-10-16T08:25:04.143Z,1.50
2022-10-16T08:35:05.947Z,1.52
2022-10-16T08:45:20.801Z,1.83
2022-10-16T08:55:43.923Z,1.73
2022-10-16T09:05:46.431Z,1.60
2022-10-16T09:16:10.988Z,1.38
2022-10-16T09:26:15.215Z,1.50
2022-10-16T09:36:17.974Z,1.90
2022-10-16T09:46:41.254Z,1.40
2022-10-16T09:56:43.244Z,1.13
2022-10-16T10:06:47.638Z,1.80
2022-10-16T10:16:49.994Z,1.30
2022-10-16T10:27:17.640Z,1.60
2022-10-16T10:37:57.970Z,1.70
2022-10-16T10:48:03.703Z,1.65
2022-10-16T10:58:32.294Z,1.67
2022-10-16T11:09:08.743Z,1.10
2022-10-16T11:19:33.454Z,6.70
2022-10-16T11:29:41.303Z,6.65
2022-10-16T11:39:45.131Z,8.10
2022-10-16T11:49:50.446Z,6.68
2022-10-16T12:00:02.489Z,7.25
2022-10-16T12:20:46.720Z,5.90
2022-10-16T12:30:57.161Z,8.50
2022-10-16T12:41:03.020Z,6.40
2022-10-16T12:51:23.942Z,6.47
2022-10-16T13:01:28.351Z,9.05
2022-10-16T13:12:07.797Z,8.52
2022-10-16T13:22:29.124Z,13.43
2022-10-16T13:32:31.807Z,11.40
2022-10-16T13:42:34.734Z,9.33
2022-10-16T13:52:36.308Z,11.47
2022-10-16T14:02:41.388Z,9.40
2022-10-16T14:12:42.866Z,11.03
2022-10-16T14:22:44.422Z,12.87
2022-10-16T14:33:00.718Z,13.70
2022-10-16T14:43:03.948Z,14.87
2022-10-16T14:53:13.258Z,14.50
2022-10-16T15:03:16.333Z,14.33
2022-10-16T15:13:17.857Z,5.87
2022-10-16T15:23:22.273Z,6.07
2022-10-16T15:33:28.505Z,6.67
2022-10-16T15:43:29.997Z,14.33
2022-10-16T15:53:31.435Z,6.43
2022-10-16T16:03:33.828Z,16.30
2022-10-16T16:13:37.953Z,15.10
2022-10-16T16:23:39.630Z,12.30
2022-10-16T16:33:41.086Z,11.53
2022-10-16T16:43:43.263Z,11.37
2022-10-16T16:53:50.349Z,12.47
2022-10-16T17:03:54.747Z,11.20
2022-10-16T17:13:58.197Z,12.93
2022-10-16T17:24:00.893Z,13.20
2022-10-16T17:34:06.253Z,13.47
2022-10-16T17:44:08.396Z,15.33
2022-10-16T17:54:11.587Z,15.70
2022-10-16T18:04:15.762Z,16.40
2022-10-16T18:14:18.447Z,15.00
2022-10-16T18:24:20.040Z,14.60
2022-10-16T18:34:21.666Z,12.53
2022-10-16T18:44:23.140Z,13.77
2022-10-16T18:54:25.312Z,12.60
2022-10-16T19:04:28.300Z,12.20
2022-10-16T19:14:30.155Z,10.23
2022-10-16T19:24:31.652Z,6.97
2022-10-16T19:34:33.783Z,11.03
2022-10-16T19:44:35.340Z,5.73
2022-10-16T19:54:38.966Z,5.13
2022-10-16T20:04:40.470Z,4.80
2022-10-16T20:14:41.918Z,4.80
2022-10-16T20:24:43.358Z,5.27
2022-10-16T20:34:49.070Z,4.53
2022-10-16T20:44:51.297Z,4.53
2022-10-16T20:54:53.205Z,5.07
2022-10-16T21:04:54.697Z,4.53
2022-10-16T21:15:14.015Z,5.33
2022-10-16T21:25:16.009Z,6.03
2022-10-16T21:35:17.854Z,5.57
2022-10-16T21:45:19.293Z,4.97
2022-10-16T21:55:20.744Z,10.27
2022-10-16T22:05:22.170Z,7.83
2022-10-16T22:25:29.963Z,11.10
2022-10-16T22:35:35.714Z,13.67
2022-10-16T22:45:37.163Z,13.47
2022-10-16T22:55:38.659Z,13.57
2022-10-16T23:05:43.632Z,12.73
2022-10-16T23:15:45.141Z,11.87
2022-10-16T23:25:47.258Z,12.80
2022-10-16T23:35:48.690Z,10.63
2022-10-16T23:45:50.199Z,7.30
2022-10-16T23:55:51.683Z,7.87
